sensor_id;sensor_type;location;lat;lon;timestamp;P1;durP1;ratioP1;P2;durP2;ratioP2
63112;SDS011;49206;48.020;21.378;2023-02-03T00:01:01;8.98;;;5.07;;
63112;SDS011;49206;48.020;21.378;2023-02-03T00:02:04;7.05;;;4.53;;
63112;SDS011;49206;48.020;21.378;2023-02-03T00:03:06;5.78;;;3.90;;
63112;SDS011;49206;48.020;21.378;2023-02-03T00:04:08;7.30;;;4.72;;
63112;SDS011;49206;48.020;21.378;2023-02-03T00:05:11;6.85;;;3.75;;
63112;SDS011;49206;48.020;21.378;2023-02-03T00:06:13;6.35;;;4.03;;
63112;SDS011;49206;48.020;21.378;2023-02-03T00:07:16;5.05;;;3.80;;
63112;SDS011;49206;48.020;21.378;2023-02-03T00:08:18;6.88;;;4.07;;
63112;SDS011;49206;48.020;21.378;2023-02-03T00:09:21;6.05;;;3.63;;
63112;SDS011;49206;48.020;21.378;2023-02-03T00:10:24;10.93;;;4.00;;
63112;SDS011;49206;48.020;21.378;2023-02-03T00:11:30;5.18;;;3.13;;
63112;SDS011;49206;48.020;21.378;2023-02-03T00:12:32;5.88;;;3.35;;
63112;SDS011;49206;48.020;21.378;2023-02-03T00:13:35;4.32;;;3.60;;
63112;SDS011;49206;48.020;21.378;2023-02-03T00:14:38;5.90;;;3.50;;
63112;SDS011;49206;48.020;21.378;2023-02-03T00:15:40;6.57;;;3.65;;
63112;SDS011;49206;48.020;21.378;2023-02-03T00:16:44;6.82;;;3.58;;
63112;SDS011;49206;48.020;21.378;2023-02-03T00:17:46;5.97;;;3.65;;
63112;SDS011;49206;48.020;21.378;2023-02-03T00:18:49;5.53;;;3.00;;
63112;SDS011;49206;48.020;21.378;2023-02-03T00:19:51;5.00;;;3.13;;
63112;SDS011;49206;48.020;21.378;2023-02-03T00:20:53;4.95;;;2.90;;
63112;SDS011;49206;48.020;21.378;2023-02-03T00:21:56;5.68;;;3.00;;
63112;SDS011;49206;48.020;21.378;2023-02-03T00:23:02;6.07;;;3.17;;
63112;SDS011;49206;48.020;21.378;2023-02-03T00:24:09;4.85;;;3.30;;
63112;SDS011;49206;48.020;21.378;2023-02-03T00:25:11;4.75;;;3.22;;
63112;SDS011;49206;48.020;21.378;2023-02-03T00:26:14;4.43;;;2.80;;
63112;SDS011;49206;48.020;21.378;2023-02-03T00:27:18;5.03;;;2.95;;
63112;SDS011;49206;48.020;21.378;2023-02-03T00:28:21;5.38;;;3.10;;
63112;SDS011;49206;48.020;21.378;2023-02-03T00:29:24;5.40;;;2.97;;
63112;SDS011;49206;48.020;21.378;2023-02-03T00:30:27;5.22;;;3.05;;
63112;SDS011;49206;48.020;21.378;2023-02-03T00:31:29;4.97;;;2.90;;
63112;SDS011;49206;48.020;21.378;2023-02-03T00:32:32;3.65;;;2.92;;
63112;SDS011;49206;48.020;21.378;2023-02-03T00:33:34;4.20;;;2.67;;
63112;SDS011;49206;48.020;21.378;2023-02-03T00:34:36;4.80;;;2.50;;
63112;SDS011;49206;48.020;21.378;2023-02-03T00:35:40;3.72;;;2.70;;
63112;SDS011;49206;48.020;21.378;2023-02-03T00:36:42;3.60;;;2.80;;
63112;SDS011;49206;48.020;21.378;2023-02-03T00:37:51;4.53;;;2.78;;
63112;SDS011;49206;48.020;21.378;2023-02-03T00:38:55;4.38;;;3.13;;
63112;SDS011;49206;48.020;21.378;2023-02-03T00:39:57;2.92;;;2.63;;
63112;SDS011;49206;48.020;21.378;2023-02-03T00:41:00;5.07;;;3.13;;
63112;SDS011;49206;48.020;21.378;2023-02-03T00:42:03;4.72;;;2.80;;
63112;SDS011;49206;48.020;21.378;2023-02-03T00:43:06;6.00;;;2.78;;
63112;SDS011;49206;48.020;21.378;2023-02-03T00:44:08;2.80;;;2.47;;
63112;SDS011;49206;48.020;21.378;2023-02-03T00:45:11;6.40;;;2.78;;
63112;SDS011;49206;48.020;21.378;2023-02-03T00:46:14;3.70;;;2.75;;
63112;SDS011;49206;48.020;21.378;2023-02-03T00:47:17;3.70;;;2.60;;
63112;SDS011;49206;48.020;21.378;2023-02-03T00:48:19;3.47;;;2.45;;
63112;SDS011;49206;48.020;21.378;2023-02-03T00:49:22;3.50;;;2.40;;
63112;SDS011;49206;48.020;21.378;2023-02-03T00:50:24;5.00;;;2.63;;
63112;SDS011;49206;48.020;21.378;2023-02-03T00:51:27;4.05;;;2.72;;
63112;SDS011;49206;48.020;21.378;2023-02-03T00:52:29;5.70;;;2.88;;
63112;SDS011;49206;48.020;21.378;2023-02-03T00:53:32;3.22;;;2.83;;
63112;SDS011;49206;48.020;21.378;2023-02-03T00:54:35;4.57;;;2.92;;
63112;SDS011;49206;48.020;21.378;2023-02-03T00:55:37;4.68;;;2.63;;
63112;SDS011;49206;48.020;21.378;2023-02-03T00:56:40;4.53;;;2.75;;
63112;SDS011;49206;48.020;21.378;2023-02-03T00:57:42;4.82;;;2.50;;
63112;SDS011;49206;48.020;21.378;2023-02-03T00:58:45;3.33;;;2.42;;
63112;SDS011;49206;48.020;21.378;2023-02-03T00:59:48;2.95;;;2.55;;
63112;SDS011;49206;48.020;21.378;2023-02-03T01:00:50;3.90;;;2.50;;
63112;SDS011;49206;48.020;21.378;2023-02-03T01:01:53;4.35;;;2.58;;
63112;SDS011;49206;48.020;21.378;2023-02-03T01:02:55;5.05;;;2.45;;
63112;SDS011;49206;48.020;21.378;2023-02-03T01:03:58;3.65;;;2.97;;
63112;SDS011;49206;48.020;21.378;2023-02-03T01:05:01;4.05;;;2.60;;
63112;SDS011;49206;48.020;21.378;2023-02-03T01:06:11;3.50;;;2.50;;
63112;SDS011;49206;48.020;21.378;2023-02-03T01:07:16;4.13;;;2.45;;
63112;SDS011;49206;48.020;21.378;2023-02-03T01:08:18;5.25;;;2.40;;
63112;SDS011;49206;48.020;21.378;2023-02-03T01:09:22;4.13;;;2.88;;
63112;SDS011;49206;48.020;21.378;2023-02-03T01:10:27;4.50;;;2.80;;
63112;SDS011;49206;48.020;21.378;2023-02-03T01:11:31;3.78;;;2.83;;
63112;SDS011;49206;48.020;21.378;2023-02-03T01:12:34;5.72;;;2.70;;
63112;SDS011;49206;48.020;21.378;2023-02-03T01:13:36;2.92;;;2.60;;
63112;SDS011;49206;48.020;21.378;2023-02-03T01:14:42;4.85;;;2.28;;
63112;SDS011;49206;48.020;21.378;2023-02-03T01:15:45;6.00;;;2.83;;
63112;SDS011;49206;48.020;21.378;2023-02-03T01:16:49;4.85;;;2.33;;
63112;SDS011;49206;48.020;21.378;2023-02-03T01:17:51;4.25;;;2.63;;
63112;SDS011;49206;48.020;21.378;2023-02-03T01:18:54;5.50;;;2.40;;
63112;SDS011;49206;48.020;21.378;2023-02-03T01:19:57;2.72;;;2.38;;
63112;SDS011;49206;48.020;21.378;2023-02-03T01:21:06;3.58;;;2.50;;
63112;SDS011;49206;48.020;21.378;2023-02-03T01:23:12;5.07;;;2.50;;
63112;SDS011;49206;48.020;21.378;2023-02-03T01:24:14;2.42;;;2.22;;
63112;SDS011;49206;48.020;21.378;2023-02-03T01:25:18;3.58;;;2.83;;
63112;SDS011;49206;48.020;21.378;2023-02-03T01:26:22;6.20;;;3.22;;
63112;SDS011;49206;48.020;21.378;2023-02-03T01:27:25;4.97;;;2.67;;
63112;SDS011;49206;48.020;21.378;2023-02-03T01:28:29;5.70;;;3.03;;
63112;SDS011;49206;48.020;21.378;2023-02-03T01:29:32;3.53;;;2.70;;
63112;SDS011;49206;48.020;21.378;2023-02-03T01:30:35;2.63;;;2.42;;
63112;SDS011;49206;48.020;21.378;2023-02-03T01:31:38;3.60;;;2.80;;
63112;SDS011;49206;48.020;21.378;2023-02-03T01:32:43;4.60;;;2.50;;
63112;SDS011;49206;48.020;21.378;2023-02-03T01:33:46;4.95;;;3.20;;
63112;SDS011;49206;48.020;21.378;2023-02-03T01:34:49;3.05;;;2.50;;
63112;SDS011;49206;48.020;21.378;2023-02-03T01:35:52;3.58;;;2.53;;
63112;SDS011;49206;48.020;21.378;2023-02-03T01:36:54;2.75;;;2.53;;
63112;SDS011;49206;48.020;21.378;2023-02-03T01:37:57;4.70;;;2.75;;
63112;SDS011;49206;48.020;21.378;2023-02-03T01:39:00;4.72;;;2.67;;
63112;SDS011;49206;48.020;21.378;2023-02-03T01:40:03;5.18;;;2.88;;
63112;SDS011;49206;48.020;21.378;2023-02-03T01:41:09;5.45;;;2.85;;
63112;SDS011;49206;48.020;21.378;2023-02-03T01:42:14;4.90;;;3.00;;
63112;SDS011;49206;48.020;21.378;2023-02-03T01:43:32;5.20;;;3.40;;
63112;SDS011;49206;48.020;21.378;2023-02-03T01:44:41;4.32;;;2.97;;
63112;SDS011;49206;48.020;21.378;2023-02-03T01:45:48;5.45;;;2.88;;
63112;SDS011;49206;48.020;21.378;2023-02-03T01:46:51;4.38;;;2.60;;
63112;SDS011;49206;48.020;21.378;2023-02-03T01:47:54;4.50;;;2.80;;
63112;SDS011;49206;48.020;21.378;2023-02-03T01:50:34;4.13;;;2.75;;
63112;SDS011;49206;48.020;21.378;2023-02-03T01:51:39;5.93;;;3.15;;
63112;SDS011;49206;48.020;21.378;2023-02-03T01:52:45;5.82;;;2.92;;
63112;SDS011;49206;48.020;21.378;2023-02-03T01:53:51;4.68;;;3.25;;
63112;SDS011;49206;48.020;21.378;2023-02-03T01:54:55;4.45;;;2.70;;
63112;SDS011;49206;48.020;21.378;2023-02-03T01:56:00;4.05;;;3.20;;
63112;SDS011;49206;48.020;21.378;2023-02-03T01:57:05;5.68;;;2.92;;
63112;SDS011;49206;48.020;21.378;2023-02-03T01:58:16;6.13;;;2.90;;
63112;SDS011;49206;48.020;21.378;2023-02-03T01:59:22;6.22;;;2.70;;
63112;SDS011;49206;48.020;21.378;2023-02-03T02:00:25;5.18;;;2.80;;
63112;SDS011;49206;48.020;21.378;2023-02-03T02:01:29;5.55;;;3.15;;
63112;SDS011;49206;48.020;21.378;2023-02-03T02:02:33;4.43;;;2.80;;
63112;SDS011;49206;48.020;21.378;2023-02-03T02:03:41;4.45;;;3.05;;
63112;SDS011;49206;48.020;21.378;2023-02-03T02:06:11;4.18;;;3.40;;
63112;SDS011;49206;48.020;21.378;2023-02-03T02:07:15;4.15;;;2.80;;
63112;SDS011;49206;48.020;21.378;2023-02-03T02:08:18;5.18;;;3.28;;
63112;SDS011;49206;48.020;21.378;2023-02-03T02:09:24;4.18;;;2.60;;
63112;SDS011;49206;48.020;21.378;2023-02-03T02:10:28;5.43;;;2.78;;
63112;SDS011;49206;48.020;21.378;2023-02-03T02:11:31;6.13;;;3.50;;
63112;SDS011;49206;48.020;21.378;2023-02-03T02:12:35;6.15;;;3.60;;
63112;SDS011;49206;48.020;21.378;2023-02-03T02:13:38;5.90;;;3.30;;
63112;SDS011;49206;48.020;21.378;2023-02-03T02:14:41;5.10;;;3.38;;
63112;SDS011;49206;48.020;21.378;2023-02-03T02:22:29;4.97;;;3.40;;
63112;SDS011;49206;48.020;21.378;2023-02-03T02:25:24;7.03;;;3.65;;
63112;SDS011;49206;48.020;21.378;2023-02-03T02:28:23;4.32;;;3.10;;
63112;SDS011;49206;48.020;21.378;2023-02-03T02:31:16;5.55;;;3.05;;
63112;SDS011;49206;48.020;21.378;2023-02-03T02:37:43;7.57;;;3.10;;
63112;SDS011;49206;48.020;21.378;2023-02-03T02:39:11;6.10;;;3.28;;
63112;SDS011;49206;48.020;21.378;2023-02-03T02:40:50;3.92;;;2.67;;
63112;SDS011;49206;48.020;21.378;2023-02-03T02:45:04;3.80;;;3.03;;
63112;SDS011;49206;48.020;21.378;2023-02-03T02:46:16;5.75;;;2.97;;
63112;SDS011;49206;48.020;21.378;2023-02-03T02:47:26;4.65;;;2.55;;
63112;SDS011;49206;48.020;21.378;2023-02-03T02:48:36;3.83;;;2.80;;
63112;SDS011;49206;48.020;21.378;2023-02-03T02:50:57;6.03;;;3.40;;
63112;SDS011;49206;48.020;21.378;2023-02-03T02:52:03;7.57;;;3.75;;
63112;SDS011;49206;48.020;21.378;2023-02-03T02:53:07;5.47;;;2.90;;
63112;SDS011;49206;48.020;21.378;2023-02-03T02:54:12;5.30;;;3.30;;
63112;SDS011;49206;48.020;21.378;2023-02-03T02:55:23;7.57;;;3.25;;
63112;SDS011;49206;48.020;21.378;2023-02-03T02:56:33;4.72;;;3.08;;
63112;SDS011;49206;48.020;21.378;2023-02-03T02:57:37;4.63;;;3.10;;
63112;SDS011;49206;48.020;21.378;2023-02-03T02:58:41;3.88;;;3.05;;
63112;SDS011;49206;48.020;21.378;2023-02-03T02:59:46;5.38;;;3.47;;
63112;SDS011;49206;48.020;21.378;2023-02-03T03:00:49;6.38;;;2.88;;
63112;SDS011;49206;48.020;21.378;2023-02-03T03:01:52;4.63;;;3.40;;
63112;SDS011;49206;48.020;21.378;2023-02-03T03:02:55;5.05;;;3.10;;
63112;SDS011;49206;48.020;21.378;2023-02-03T03:03:59;5.43;;;3.47;;
63112;SDS011;49206;48.020;21.378;2023-02-03T03:05:05;4.78;;;2.95;;
63112;SDS011;49206;48.020;21.378;2023-02-03T03:06:19;6.57;;;3.58;;
63112;SDS011;49206;48.020;21.378;2023-02-03T03:07:27;6.60;;;3.15;;
63112;SDS011;49206;48.020;21.378;2023-02-03T03:08:41;6.50;;;3.22;;
63112;SDS011;49206;48.020;21.378;2023-02-03T03:09:49;5.63;;;3.28;;
63112;SDS011;49206;48.020;21.378;2023-02-03T03:10:59;5.72;;;3.22;;
63112;SDS011;49206;48.020;21.378;2023-02-03T03:12:15;3.90;;;2.97;;
63112;SDS011;49206;48.020;21.378;2023-02-03T03:13:23;5.93;;;3.47;;
63112;SDS011;49206;48.020;21.378;2023-02-03T03:14:30;3.88;;;3.35;;
63112;SDS011;49206;48.020;21.378;2023-02-03T03:15:33;4.75;;;3.08;;
63112;SDS011;49206;48.020;21.378;2023-02-03T03:16:37;8.73;;;3.92;;
63112;SDS011;49206;48.020;21.378;2023-02-03T03:17:48;5.65;;;3.80;;
63112;SDS011;49206;48.020;21.378;2023-02-03T03:18:57;3.85;;;3.08;;
63112;SDS011;49206;48.020;21.378;2023-02-03T03:20:05;7.75;;;3.75;;
63112;SDS011;49206;48.020;21.378;2023-02-03T03:21:13;7.60;;;4.10;;
63112;SDS011;49206;48.020;21.378;2023-02-03T03:22:22;6.95;;;3.85;;
63112;SDS011;49206;48.020;21.378;2023-02-03T03:23:29;4.65;;;3.70;;
63112;SDS011;49206;48.020;21.378;2023-02-03T03:24:46;5.72;;;3.75;;
63112;SDS011;49206;48.020;21.378;2023-02-03T03:25:56;6.75;;;4.00;;
63112;SDS011;49206;48.020;21.378;2023-02-03T03:27:12;5.40;;;3.55;;
63112;SDS011;49206;48.020;21.378;2023-02-03T03:28:24;7.70;;;3.78;;
63112;SDS011;49206;48.020;21.378;2023-02-03T03:30:37;4.57;;;3.60;;
63112;SDS011;49206;48.020;21.378;2023-02-03T03:31:40;7.13;;;3.40;;
63112;SDS011;49206;48.020;21.378;2023-02-03T03:32:43;5.72;;;3.83;;
63112;SDS011;49206;48.020;21.378;2023-02-03T03:33:46;8.90;;;4.25;;
63112;SDS011;49206;48.020;21.378;2023-02-03T03:34:49;7.55;;;3.80;;
63112;SDS011;49206;48.020;21.378;2023-02-03T03:37:22;6.45;;;4.00;;
63112;SDS011;49206;48.020;21.378;2023-02-03T03:38:38;4.22;;;3.50;;
63112;SDS011;49206;48.020;21.378;2023-02-03T03:39:59;6.25;;;3.88;;
63112;SDS011;49206;48.020;21.378;2023-02-03T03:41:04;4.93;;;3.42;;
63112;SDS011;49206;48.020;21.378;2023-02-03T03:43:38;8.07;;;3.60;;
63112;SDS011;49206;48.020;21.378;2023-02-03T03:44:46;6.22;;;3.63;;
63112;SDS011;49206;48.020;21.378;2023-02-03T03:46:20;9.30;;;4.25;;
63112;SDS011;49206;48.020;21.378;2023-02-03T03:47:37;5.88;;;3.42;;
63112;SDS011;49206;48.020;21.378;2023-02-03T03:50:04;4.32;;;3.10;;
63112;SDS011;49206;48.020;21.378;2023-02-03T03:51:12;5.90;;;3.72;;
63112;SDS011;49206;48.020;21.378;2023-02-03T03:52:23;7.78;;;3.90;;
63112;SDS011;49206;48.020;21.378;2023-02-03T03:53:31;8.43;;;4.50;;
63112;SDS011;49206;48.020;21.378;2023-02-03T03:54:35;7.47;;;4.45;;
63112;SDS011;49206;48.020;21.378;2023-02-03T03:55:39;10.00;;;4.30;;
63112;SDS011;49206;48.020;21.378;2023-02-03T03:58:11;6.43;;;3.85;;
63112;SDS011;49206;48.020;21.378;2023-02-03T03:59:18;5.85;;;4.15;;
63112;SDS011;49206;48.020;21.378;2023-02-03T04:00:23;6.82;;;3.65;;
63112;SDS011;49206;48.020;21.378;2023-02-03T04:01:29;5.22;;;4.10;;
63112;SDS011;49206;48.020;21.378;2023-02-03T04:02:32;5.80;;;3.90;;
63112;SDS011;49206;48.020;21.378;2023-02-03T04:03:38;6.45;;;3.67;;
63112;SDS011;49206;48.020;21.378;2023-02-03T04:04:45;7.25;;;4.15;;
63112;SDS011;49206;48.020;21.378;2023-02-03T04:05:50;4.43;;;3.50;;
63112;SDS011;49206;48.020;21.378;2023-02-03T04:06:52;7.70;;;4.10;;
63112;SDS011;49206;48.020;21.378;2023-02-03T04:07:55;6.20;;;3.75;;
63112;SDS011;49206;48.020;21.378;2023-02-03T04:08:58;5.00;;;3.63;;
63112;SDS011;49206;48.020;21.378;2023-02-03T04:10:00;5.15;;;3.67;;
63112;SDS011;49206;48.020;21.378;2023-02-03T04:11:05;4.43;;;3.50;;
63112;SDS011;49206;48.020;21.378;2023-02-03T04:13:31;8.38;;;3.85;;
63112;SDS011;49206;48.020;21.378;2023-02-03T04:14:34;5.55;;;4.07;;
63112;SDS011;49206;48.020;21.378;2023-02-03T04:15:39;5.20;;;3.85;;
63112;SDS011;49206;48.020;21.378;2023-02-03T04:16:42;6.30;;;4.00;;
63112;SDS011;49206;48.020;21.378;2023-02-03T04:17:44;5.10;;;4.15;;
63112;SDS011;49206;48.020;21.378;2023-02-03T04:18:47;4.90;;;3.65;;
63112;SDS011;49206;48.020;21.378;2023-02-03T04:19:50;5.43;;;3.72;;
63112;SDS011;49206;48.020;21.378;2023-02-03T04:20:52;5.75;;;3.85;;
63112;SDS011;49206;48.020;21.378;2023-02-03T04:21:54;6.55;;;3.88;;
63112;SDS011;49206;48.020;21.378;2023-02-03T04:22:57;5.57;;;3.42;;
63112;SDS011;49206;48.020;21.378;2023-02-03T04:24:00;6.38;;;3.88;;
63112;SDS011;49206;48.020;21.378;2023-02-03T04:25:06;8.50;;;4.43;;
63112;SDS011;49206;48.020;21.378;2023-02-03T04:26:09;5.90;;;3.63;;
63112;SDS011;49206;48.020;21.378;2023-02-03T04:27:11;5.68;;;3.58;;
63112;SDS011;49206;48.020;21.378;2023-02-03T04:28:14;6.22;;;3.85;;
63112;SDS011;49206;48.020;21.378;2023-02-03T04:29:16;5.03;;;3.72;;
63112;SDS011;49206;48.020;21.378;2023-02-03T04:30:19;6.20;;;3.90;;
63112;SDS011;49206;48.020;21.378;2023-02-03T04:31:21;8.50;;;3.67;;
63112;SDS011;49206;48.020;21.378;2023-02-03T04:32:23;5.95;;;3.65;;
63112;SDS011;49206;48.020;21.378;2023-02-03T04:33:26;5.55;;;3.80;;
63112;SDS011;49206;48.020;21.378;2023-02-03T04:34:28;5.53;;;3.65;;
63112;SDS011;49206;48.020;21.378;2023-02-03T04:35:31;6.20;;;4.13;;
63112;SDS011;49206;48.020;21.378;2023-02-03T04:36:33;5.97;;;3.72;;
63112;SDS011;49206;48.020;21.378;2023-02-03T04:37:36;9.65;;;4.45;;
63112;SDS011;49206;48.020;21.378;2023-02-03T04:38:38;6.50;;;3.95;;
63112;SDS011;49206;48.020;21.378;2023-02-03T04:39:41;7.45;;;4.30;;
63112;SDS011;49206;48.020;21.378;2023-02-03T04:40:43;7.63;;;3.88;;
63112;SDS011;49206;48.020;21.378;2023-02-03T04:41:47;5.47;;;3.92;;
63112;SDS011;49206;48.020;21.378;2023-02-03T04:42:49;6.43;;;4.57;;
63112;SDS011;49206;48.020;21.378;2023-02-03T04:43:51;10.15;;;4.30;;
63112;SDS011;49206;48.020;21.378;2023-02-03T04:44:54;5.55;;;3.78;;
63112;SDS011;49206;48.020;21.378;2023-02-03T04:45:58;7.32;;;3.90;;
63112;SDS011;49206;48.020;21.378;2023-02-03T04:47:02;6.50;;;3.45;;
63112;SDS011;49206;48.020;21.378;2023-02-03T04:48:05;8.15;;;4.22;;
63112;SDS011;49206;48.020;21.378;2023-02-03T04:49:07;7.43;;;3.80;;
63112;SDS011;49206;48.020;21.378;2023-02-03T04:50:12;5.18;;;3.63;;
63112;SDS011;49206;48.020;21.378;2023-02-03T04:51:14;8.82;;;3.95;;
63112;SDS011;49206;48.020;21.378;2023-02-03T04:52:17;7.18;;;4.15;;
63112;SDS011;49206;48.020;21.378;2023-02-03T04:53:19;6.72;;;4.57;;
63112;SDS011;49206;48.020;21.378;2023-02-03T04:54:22;7.15;;;4.25;;
63112;SDS011;49206;48.020;21.378;2023-02-03T04:55:25;9.00;;;4.68;;
63112;SDS011;49206;48.020;21.378;2023-02-03T04:56:30;6.03;;;4.38;;
63112;SDS011;49206;48.020;21.378;2023-02-03T04:57:33;8.52;;;5.07;;
63112;SDS011;49206;48.020;21.378;2023-02-03T04:58:36;13.95;;;5.18;;
63112;SDS011;49206;48.020;21.378;2023-02-03T04:59:38;11.23;;;5.30;;
63112;SDS011;49206;48.020;21.378;2023-02-03T05:00:41;11.05;;;5.85;;
63112;SDS011;49206;48.020;21.378;2023-02-03T05:01:43;13.15;;;6.18;;
63112;SDS011;49206;48.020;21.378;2023-02-03T05:02:46;15.95;;;7.55;;
63112;SDS011;49206;48.020;21.378;2023-02-03T05:03:48;17.75;;;7.65;;
63112;SDS011;49206;48.020;21.378;2023-02-03T05:04:51;22.17;;;8.70;;
63112;SDS011;49206;48.020;21.378;2023-02-03T05:05:55;20.98;;;9.70;;
63112;SDS011;49206;48.020;21.378;2023-02-03T05:06:58;21.05;;;10.25;;
63112;SDS011;49206;48.020;21.378;2023-02-03T05:08:00;14.50;;;8.30;;
63112;SDS011;49206;48.020;21.378;2023-02-03T05:09:02;15.48;;;8.15;;
63112;SDS011;49206;48.020;21.378;2023-02-03T05:10:05;13.05;;;7.18;;
63112;SDS011;49206;48.020;21.378;2023-02-03T05:11:08;14.77;;;7.15;;
63112;SDS011;49206;48.020;21.378;2023-02-03T05:12:10;11.32;;;6.30;;
63112;SDS011;49206;48.020;21.378;2023-02-03T05:13:13;12.77;;;6.70;;
63112;SDS011;49206;48.020;21.378;2023-02-03T05:14:15;11.90;;;6.93;;
63112;SDS011;49206;48.020;21.378;2023-02-03T05:15:18;14.00;;;6.13;;
63112;SDS011;49206;48.020;21.378;2023-02-03T05:16:20;10.43;;;7.25;;
63112;SDS011;49206;48.020;21.378;2023-02-03T05:17:22;9.93;;;6.55;;
63112;SDS011;49206;48.020;21.378;2023-02-03T05:18:25;12.45;;;7.07;;
63112;SDS011;49206;48.020;21.378;2023-02-03T05:19:28;10.18;;;6.15;;
63112;SDS011;49206;48.020;21.378;2023-02-03T05:20:30;14.23;;;6.95;;
63112;SDS011;49206;48.020;21.378;2023-02-03T05:21:33;14.73;;;7.82;;
63112;SDS011;49206;48.020;21.378;2023-02-03T05:22:36;18.90;;;8.05;;
63112;SDS011;49206;48.020;21.378;2023-02-03T05:23:38;15.52;;;8.25;;
63112;SDS011;49206;48.020;21.378;2023-02-03T05:24:41;17.05;;;8.05;;
63112;SDS011;49206;48.020;21.378;2023-02-03T05:25:43;17.42;;;8.75;;
63112;SDS011;49206;48.020;21.378;2023-02-03T05:26:46;14.98;;;8.65;;
63112;SDS011;49206;48.020;21.378;2023-02-03T05:27:49;15.13;;;7.95;;
63112;SDS011;49206;48.020;21.378;2023-02-03T05:28:51;15.90;;;8.48;;
63112;SDS011;49206;48.020;21.378;2023-02-03T05:29:57;18.80;;;9.05;;
63112;SDS011;49206;48.020;21.378;2023-02-03T05:30:59;18.05;;;9.50;;
63112;SDS011;49206;48.020;21.378;2023-02-03T05:32:02;18.08;;;9.93;;
63112;SDS011;49206;48.020;21.378;2023-02-03T05:33:05;18.70;;;10.00;;
63112;SDS011;49206;48.020;21.378;2023-02-03T05:34:08;15.65;;;9.13;;
63112;SDS011;49206;48.020;21.378;2023-02-03T05:35:10;13.90;;;8.25;;
63112;SDS011;49206;48.020;21.378;2023-02-03T05:36:13;13.52;;;7.80;;
63112;SDS011;49206;48.020;21.378;2023-02-03T05:37:16;15.65;;;7.43;;
63112;SDS011;49206;48.020;21.378;2023-02-03T05:38:18;14.32;;;7.43;;
63112;SDS011;49206;48.020;21.378;2023-02-03T05:39:21;13.73;;;7.55;;
63112;SDS011;49206;48.020;21.378;2023-02-03T05:40:24;13.93;;;7.68;;
63112;SDS011;49206;48.020;21.378;2023-02-03T05:41:45;16.45;;;8.25;;
63112;SDS011;49206;48.020;21.378;2023-02-03T05:42:54;14.02;;;7.70;;
63112;SDS011;49206;48.020;21.378;2023-02-03T05:43:56;14.70;;;7.65;;
63112;SDS011;49206;48.020;21.378;2023-02-03T05:44:59;13.80;;;8.07;;
63112;SDS011;49206;48.020;21.378;2023-02-03T05:46:03;11.43;;;6.80;;
63112;SDS011;49206;48.020;21.378;2023-02-03T05:47:07;11.32;;;6.90;;
63112;SDS011;49206;48.020;21.378;2023-02-03T05:48:09;13.00;;;7.10;;
63112;SDS011;49206;48.020;21.378;2023-02-03T05:49:12;14.55;;;7.97;;
63112;SDS011;49206;48.020;21.378;2023-02-03T05:50:14;14.90;;;7.82;;
63112;SDS011;49206;48.020;21.378;2023-02-03T05:51:17;15.57;;;7.32;;
63112;SDS011;49206;48.020;21.378;2023-02-03T05:52:20;15.18;;;7.78;;
63112;SDS011;49206;48.020;21.378;2023-02-03T05:53:22;17.80;;;8.27;;
63112;SDS011;49206;48.020;21.378;2023-02-03T05:54:24;13.23;;;7.82;;
63112;SDS011;49206;48.020;21.378;2023-02-03T05:55:27;14.20;;;8.25;;
63112;SDS011;49206;48.020;21.378;2023-02-03T05:56:31;17.70;;;8.88;;
63112;SDS011;49206;48.020;21.378;2023-02-03T05:57:33;19.52;;;9.35;;
63112;SDS011;49206;48.020;21.378;2023-02-03T05:58:36;17.30;;;9.05;;
63112;SDS011;49206;48.020;21.378;2023-02-03T05:59:38;16.27;;;8.85;;
63112;SDS011;49206;48.020;21.378;2023-02-03T06:00:41;12.95;;;7.90;;
63112;SDS011;49206;48.020;21.378;2023-02-03T06:01:43;14.82;;;8.15;;
63112;SDS011;49206;48.020;21.378;2023-02-03T06:02:52;13.55;;;7.50;;
63112;SDS011;49206;48.020;21.378;2023-02-03T06:03:56;17.23;;;9.15;;
63112;SDS011;49206;48.020;21.378;2023-02-03T06:04:58;14.90;;;7.72;;
63112;SDS011;49206;48.020;21.378;2023-02-03T06:06:01;15.52;;;7.68;;
63112;SDS011;49206;48.020;21.378;2023-02-03T06:07:03;17.58;;;9.07;;
63112;SDS011;49206;48.020;21.378;2023-02-03T06:08:06;14.88;;;8.10;;
63112;SDS011;49206;48.020;21.378;2023-02-03T06:09:09;14.48;;;8.20;;
63112;SDS011;49206;48.020;21.378;2023-02-03T06:10:12;14.00;;;8.32;;
63112;SDS011;49206;48.020;21.378;2023-02-03T06:11:14;15.05;;;8.65;;
63112;SDS011;49206;48.020;21.378;2023-02-03T06:12:17;17.17;;;9.00;;
63112;SDS011;49206;48.020;21.378;2023-02-03T06:13:19;19.63;;;10.65;;
63112;SDS011;49206;48.020;21.378;2023-02-03T06:14:22;20.00;;;9.18;;
63112;SDS011;49206;48.020;21.378;2023-02-03T06:15:24;17.00;;;8.27;;
63112;SDS011;49206;48.020;21.378;2023-02-03T06:16:27;20.52;;;9.55;;
63112;SDS011;49206;48.020;21.378;2023-02-03T06:17:30;21.50;;;11.57;;
63112;SDS011;49206;48.020;21.378;2023-02-03T06:18:33;19.13;;;10.77;;
63112;SDS011;49206;48.020;21.378;2023-02-03T06:19:35;18.00;;;9.52;;
63112;SDS011;49206;48.020;21.378;2023-02-03T06:20:38;19.38;;;10.50;;
63112;SDS011;49206;48.020;21.378;2023-02-03T06:21:40;20.30;;;8.63;;
63112;SDS011;49206;48.020;21.378;2023-02-03T06:22:43;22.27;;;10.57;;
63112;SDS011;49206;48.020;21.378;2023-02-03T06:23:45;20.02;;;9.70;;
63112;SDS011;49206;48.020;21.378;2023-02-03T06:24:48;15.07;;;8.75;;
63112;SDS011;49206;48.020;21.378;2023-02-03T06:25:50;20.40;;;8.80;;
63112;SDS011;49206;48.020;21.378;2023-02-03T06:26:53;14.95;;;7.82;;
63112;SDS011;49206;48.020;21.378;2023-02-03T06:27:56;16.88;;;7.18;;
63112;SDS011;49206;48.020;21.378;2023-02-03T06:28:58;17.65;;;7.53;;
63112;SDS011;49206;48.020;21.378;2023-02-03T06:30:01;13.73;;;7.35;;
63112;SDS011;49206;48.020;21.378;2023-02-03T06:31:04;13.40;;;7.22;;
63112;SDS011;49206;48.020;21.378;2023-02-03T06:32:07;11.05;;;6.38;;
63112;SDS011;49206;48.020;21.378;2023-02-03T06:33:10;15.63;;;7.45;;
63112;SDS011;49206;48.020;21.378;2023-02-03T06:34:12;13.88;;;8.05;;
63112;SDS011;49206;48.020;21.378;2023-02-03T06:35:15;15.70;;;9.48;;
63112;SDS011;49206;48.020;21.378;2023-02-03T06:36:18;18.33;;;10.00;;
63112;SDS011;49206;48.020;21.378;2023-02-03T06:37:20;17.08;;;9.18;;
63112;SDS011;49206;48.020;21.378;2023-02-03T06:38:25;19.48;;;10.82;;
63112;SDS011;49206;48.020;21.378;2023-02-03T06:39:28;24.63;;;15.38;;
63112;SDS011;49206;48.020;21.378;2023-02-03T06:40:30;20.25;;;11.25;;
63112;SDS011;49206;48.020;21.378;2023-02-03T06:41:33;22.27;;;11.98;;
63112;SDS011;49206;48.020;21.378;2023-02-03T06:42:35;20.30;;;11.18;;
63112;SDS011;49206;48.020;21.378;2023-02-03T06:43:37;19.08;;;9.95;;
63112;SDS011;49206;48.020;21.378;2023-02-03T06:44:40;16.35;;;9.25;;
63112;SDS011;49206;48.020;21.378;2023-02-03T06:45:46;10.75;;;7.15;;
63112;SDS011;49206;48.020;21.378;2023-02-03T06:46:49;11.60;;;6.90;;
63112;SDS011;49206;48.020;21.378;2023-02-03T06:47:57;15.80;;;6.72;;
63112;SDS011;49206;48.020;21.378;2023-02-03T06:49:00;10.18;;;6.63;;
63112;SDS011;49206;48.020;21.378;2023-02-03T06:50:02;10.20;;;6.07;;
63112;SDS011;49206;48.020;21.378;2023-02-03T06:51:05;8.43;;;6.20;;
63112;SDS011;49206;48.020;21.378;2023-02-03T06:52:08;14.60;;;6.35;;
63112;SDS011;49206;48.020;21.378;2023-02-03T06:53:10;10.52;;;5.97;;
63112;SDS011;49206;48.020;21.378;2023-02-03T06:54:13;12.88;;;6.38;;
63112;SDS011;49206;48.020;21.378;2023-02-03T06:55:16;16.10;;;9.45;;